sensor_id;sensor_type;location;lat;lon;timestamp;temperature;humidity
5150;DHT22;2593;52.466;13.436;2022-11-20T00:00:55;0.40;99.90
5150;DHT22;2593;52.466;13.436;2022-11-20T00:03:21;0.30;99.90
5150;DHT22;2593;52.466;13.436;2022-11-20T00:05:46;0.40;99.90
5150;DHT22;2593;52.466;13.436;2022-11-20T00:08:12;0.40;99.90
5150;DHT22;2593;52.466;13.436;2022-11-20T00:10:39;0.40;99.90
5150;DHT22;2593;52.466;13.436;2022-11-20T00:13:05;0.40;99.90
5150;DHT22;2593;52.466;13.436;2022-11-20T00:15:31;0.40;99.90
5150;DHT22;2593;52.466;13.436;2022-11-20T00:17:57;0.40;99.90
5150;DHT22;2593;52.466;13.436;2022-11-20T00:20:23;0.50;99.90
5150;DHT22;2593;52.466;13.436;2022-11-20T00:22:49;0.40;99.90
5150;DHT22;2593;52.466;13.436;2022-11-20T00:25:15;0.40;99.90
5150;DHT22;2593;52.466;13.436;2022-11-20T00:27:41;0.40;99.90
5150;DHT22;2593;52.466;13.436;2022-11-20T00:30:07;0.40;99.90
5150;DHT22;2593;52.466;13.436;2022-11-20T00:32:33;0.40;99.90
5150;DHT22;2593;52.466;13.436;2022-11-20T00:34:58;0.50;99.90
5150;DHT22;2593;52.466;13.436;2022-11-20T00:37:24;0.50;99.90
5150;DHT22;2593;52.466;13.436;2022-11-20T00:39:50;0.60;99.90
5150;DHT22;2593;52.466;13.436;2022-11-20T00:42:15;0.50;99.90
5150;DHT22;2593;52.466;13.436;2022-11-20T00:44:41;0.50;99.90
5150;DHT22;2593;52.466;13.436;2022-11-20T00:47:07;0.50;99.90
5150;DHT22;2593;52.466;13.436;2022-11-20T00:49:32;0.50;99.90
5150;DHT22;2593;52.466;13.436;2022-11-20T00:51:58;0.50;99.90
5150;DHT22;2593;52.466;13.436;2022-11-20T00:54:24;0.50;99.90
5150;DHT22;2593;52.466;13.436;2022-11-20T00:56:49;0.50;99.90
5150;DHT22;2593;52.466;13.436;2022-11-20T00:59:15;0.40;99.90
5150;DHT22;2593;52.466;13.436;2022-11-20T01:01:41;0.40;99.90
5150;DHT22;2593;52.466;13.436;2022-11-20T01:04:06;0.30;99.90
5150;DHT22;2593;52.466;13.436;2022-11-20T01:06:34;0.40;99.90
5150;DHT22;2593;52.466;13.436;2022-11-20T01:09:04;0.40;99.90
5150;DHT22;2593;52.466;13.436;2022-11-20T01:11:42;0.40;99.90
5150;DHT22;2593;52.466;13.436;2022-11-20T01:14:11;0.40;99.90
5150;DHT22;2593;52.466;13.436;2022-11-20T01:16:41;0.40;99.90
5150;DHT22;2593;52.466;13.436;2022-11-20T01:19:14;0.40;99.90
5150;DHT22;2593;52.466;13.436;2022-11-20T01:21:41;0.40;99.90
5150;DHT22;2593;52.466;13.436;2022-11-20T01:24:11;0.40;99.90
5150;DHT22;2593;52.466;13.436;2022-11-20T01:26:39;0.40;99.90
5150;DHT22;2593;52.466;13.436;2022-11-20T01:29:06;0.30;99.90
5150;DHT22;2593;52.466;13.436;2022-11-20T01:31:36;0.40;99.90
5150;DHT22;2593;52.466;13.436;2022-11-20T01:34:04;0.40;99.90
5150;DHT22;2593;52.466;13.436;2022-11-20T01:36:33;0.40;99.90
5150;DHT22;2593;52.466;13.436;2022-11-20T01:39:01;0.40;99.90
5150;DHT22;2593;52.466;13.436;2022-11-20T01:41:29;0.40;99.90
5150;DHT22;2593;52.466;13.436;2022-11-20T01:44:16;0.40;99.90
5150;DHT22;2593;52.466;13.436;2022-11-20T01:47:08;0.40;99.90
5150;DHT22;2593;52.466;13.436;2022-11-20T01:49:40;0.50;99.90
5150;DHT22;2593;52.466;13.436;2022-11-20T01:52:17;0.50;99.90
5150;DHT22;2593;52.466;13.436;2022-11-20T01:54:52;0.50;99.90
5150;DHT22;2593;52.466;13.436;2022-11-20T01:57:19;0.50;99.90
5150;DHT22;2593;52.466;13.436;2022-11-20T01:59:51;0.50;99.90
5150;DHT22;2593;52.466;13.436;2022-11-20T02:02:20;0.50;99.90
5150;DHT22;2593;52.466;13.436;2022-11-20T02:04:47;0.50;99.90
5150;DHT22;2593;52.466;13.436;2022-11-20T02:07:13;0.50;99.90
5150;DHT22;2593;52.466;13.436;2022-11-20T02:09:39;0.40;99.90
5150;DHT22;2593;52.466;13.436;2022-11-20T02:12:05;0.40;99.90
5150;DHT22;2593;52.466;13.436;2022-11-20T02:14:51;0.50;99.90
5150;DHT22;2593;52.466;13.436;2022-11-20T02:17:17;0.50;99.90
5150;DHT22;2593;52.466;13.436;2022-11-20T02:19:42;0.40;99.90
5150;DHT22;2593;52.466;13.436;2022-11-20T02:22:10;0.40;99.90
5150;DHT22;2593;52.466;13.436;2022-11-20T02:24:39;0.40;99.90
5150;DHT22;2593;52.466;13.436;2022-11-20T02:27:09;0.30;99.90
5150;DHT22;2593;52.466;13.436;2022-11-20T02:29:57;0.30;99.90
5150;DHT22;2593;52.466;13.436;2022-11-20T02:32:31;0.30;99.90
5150;DHT22;2593;52.466;13.436;2022-11-20T02:34:57;0.40;99.90
5150;DHT22;2593;52.466;13.436;2022-11-20T02:37:30;0.30;99.90
5150;DHT22;2593;52.466;13.436;2022-11-20T02:39:56;0.20;99.90
5150;DHT22;2593;52.466;13.436;2022-11-20T02:42:21;0.10;99.90
5150;DHT22;2593;52.466;13.436;2022-11-20T02:44:47;0.20;99.90
5150;DHT22;2593;52.466;13.436;2022-11-20T02:47:13;0.20;99.90
5150;DHT22;2593;52.466;13.436;2022-11-20T02:49:38;0.20;99.90
5150;DHT22;2593;52.466;13.436;2022-11-20T02:52:04;0.30;99.90
5150;DHT22;2593;52.466;13.436;2022-11-20T02:54:30;0.20;99.90
5150;DHT22;2593;52.466;13.436;2022-11-20T02:56:56;0.20;99.90
5150;DHT22;2593;52.466;13.436;2022-11-20T02:59:22;0.20;99.90
5150;DHT22;2593;52.466;13.436;2022-11-20T03:01:47;0.10;99.90
5150;DHT22;2593;52.466;13.436;2022-11-20T03:04:13;0.10;99.90
5150;DHT22;2593;52.466;13.436;2022-11-20T03:06:39;0.10;99.90
5150;DHT22;2593;52.466;13.436;2022-11-20T03:09:04;0.10;99.90
5150;DHT22;2593;52.466;13.436;2022-11-20T03:11:30;0.20;99.90
5150;DHT22;2593;52.466;13.436;2022-11-20T03:13:55;0.20;99.90
5150;DHT22;2593;52.466;13.436;2022-11-20T03:16:23;0.20;99.90
5150;DHT22;2593;52.466;13.436;2022-11-20T03:18:49;0.10;99.90
5150;DHT22;2593;52.466;13.436;2022-11-20T03:21:17;0.10;99.90
5150;DHT22;2593;52.466;13.436;2022-11-20T03:23:42;0.10;99.90
5150;DHT22;2593;52.466;13.436;2022-11-20T03:26:16;0.10;99.90
5150;DHT22;2593;52.466;13.436;2022-11-20T03:28:47;0.10;99.90
5150;DHT22;2593;52.466;13.436;2022-11-20T03:31:14;0.10;99.90
5150;DHT22;2593;52.466;13.436;2022-11-20T03:33:41;0.20;99.90
5150;DHT22;2593;52.466;13.436;2022-11-20T03:36:12;0.20;99.90
5150;DHT22;2593;52.466;13.436;2022-11-20T03:38:38;0.10;99.90
5150;DHT22;2593;52.466;13.436;2022-11-20T03:41:16;0.00;99.90
5150;DHT22;2593;52.466;13.436;2022-11-20T03:43:47;0.10;99.90
5150;DHT22;2593;52.466;13.436;2022-11-20T03:46:13;0.10;99.90
5150;DHT22;2593;52.466;13.436;2022-11-20T03:48:39;0.10;99.90
5150;DHT22;2593;52.466;13.436;2022-11-20T03:51:13;0.10;99.90
5150;DHT22;2593;52.466;13.436;2022-11-20T03:53:40;0.10;99.90
5150;DHT22;2593;52.466;13.436;2022-11-20T03:56:07;0.00;99.90
5150;DHT22;2593;52.466;13.436;2022-11-20T03:58:34;0.00;99.90
5150;DHT22;2593;52.466;13.436;2022-11-20T04:03:31;0.00;99.90
5150;DHT22;2593;52.466;13.436;2022-11-20T04:06:03;0.00;99.90
5150;DHT22;2593;52.466;13.436;2022-11-20T04:08:29;0.10;99.90
5150;DHT22;2593;52.466;13.436;2022-11-20T04:10:55;0.00;99.90
5150;DHT22;2593;52.466;13.436;2022-11-20T04:13:20;0.10;99.90
5150;DHT22;2593;52.466;13.436;2022-11-20T04:15:46;0.10;99.90
5150;DHT22;2593;52.466;13.436;2022-11-20T04:18:12;0.00;99.90
5150;DHT22;2593;52.466;13.436;2022-11-20T04:20:37;0.00;99.90
5150;DHT22;2593;52.466;13.436;2022-11-20T04:23:03;-0.10;99.90
5150;DHT22;2593;52.466;13.436;2022-11-20T04:25:28;-0.10;99.90
5150;DHT22;2593;52.466;13.436;2022-11-20T04:27:54;0.00;99.90
5150;DHT22;2593;52.466;13.436;2022-11-20T04:30:20;0.00;99.90
5150;DHT22;2593;52.466;13.436;2022-11-20T04:32:45;0.00;99.90
5150;DHT22;2593;52.466;13.436;2022-11-20T04:35:11;0.00;99.90
5150;DHT22;2593;52.466;13.436;2022-11-20T04:37:37;0.00;99.90
5150;DHT22;2593;52.466;13.436;2022-11-20T04:40:02;0.10;99.90
5150;DHT22;2593;52.466;13.436;2022-11-20T04:42:28;0.00;99.90
5150;DHT22;2593;52.466;13.436;2022-11-20T04:44:54;0.00;99.90
5150;DHT22;2593;52.466;13.436;2022-11-20T04:47:20;0.00;99.90
5150;DHT22;2593;52.466;13.436;2022-11-20T04:49:46;0.00;99.90
5150;DHT22;2593;52.466;13.436;2022-11-20T04:52:12;0.00;99.90
5150;DHT22;2593;52.466;13.436;2022-11-20T04:54:37;0.00;99.90
5150;DHT22;2593;52.466;13.436;2022-11-20T04:57:03;-0.10;99.90
5150;DHT22;2593;52.466;13.436;2022-11-20T04:59:29;-0.10;99.90
5150;DHT22;2593;52.466;13.436;2022-11-20T05:01:54;-0.10;99.90
5150;DHT22;2593;52.466;13.436;2022-11-20T05:04:20;-0.10;99.90
5150;DHT22;2593;52.466;13.436;2022-11-20T05:06:45;-0.10;99.90
5150;DHT22;2593;52.466;13.436;2022-11-20T05:09:12;0.00;99.90
5150;DHT22;2593;52.466;13.436;2022-11-20T05:11:38;0.00;99.90
5150;DHT22;2593;52.466;13.436;2022-11-20T05:14:03;0.00;99.90
5150;DHT22;2593;52.466;13.436;2022-11-20T05:16:29;0.00;99.90
5150;DHT22;2593;52.466;13.436;2022-11-20T05:18:55;0.00;99.90
5150;DHT22;2593;52.466;13.436;2022-11-20T05:21:22;0.00;99.90
5150;DHT22;2593;52.466;13.436;2022-11-20T05:23:48;0.00;99.90
5150;DHT22;2593;52.466;13.436;2022-11-20T05:26:22;0.00;99.90
5150;DHT22;2593;52.466;13.436;2022-11-20T05:28:49;0.00;99.90
5150;DHT22;2593;52.466;13.436;2022-11-20T05:31:17;0.10;99.90
5150;DHT22;2593;52.466;13.436;2022-11-20T05:33:44;0.00;99.90
5150;DHT22;2593;52.466;13.436;2022-11-20T05:36:11;0.10;99.90
5150;DHT22;2593;52.466;13.436;2022-11-20T05:38:38;0.10;99.90
5150;DHT22;2593;52.466;13.436;2022-11-20T05:41:12;0.20;99.90
5150;DHT22;2593;52.466;13.436;2022-11-20T05:43:39;0.20;99.90
5150;DHT22;2593;52.466;13.436;2022-11-20T05:46:07;0.20;99.90
5150;DHT22;2593;52.466;13.436;2022-11-20T05:48:34;0.20;99.90
5150;DHT22;2593;52.466;13.436;2022-11-20T05:51:02;0.20;99.90
5150;DHT22;2593;52.466;13.436;2022-11-20T05:53:28;0.20;99.90
5150;DHT22;2593;52.466;13.436;2022-11-20T05:56:02;0.20;99.90
5150;DHT22;2593;52.466;13.436;2022-11-20T05:58:28;0.30;99.90
5150;DHT22;2593;52.466;13.436;2022-11-20T06:00:54;0.30;99.90
5150;DHT22;2593;52.466;13.436;2022-11-20T06:03:20;0.30;99.90
5150;DHT22;2593;52.466;13.436;2022-11-20T06:05:46;0.30;99.90
5150;DHT22;2593;52.466;13.436;2022-11-20T06:08:12;0.20;99.90
5150;DHT22;2593;52.466;13.436;2022-11-20T06:10:37;0.20;99.90
5150;DHT22;2593;52.466;13.436;2022-11-20T06:13:03;0.20;99.90
5150;DHT22;2593;52.466;13.436;2022-11-20T06:15:28;0.20;99.90
5150;DHT22;2593;52.466;13.436;2022-11-20T06:17:55;0.20;99.90
5150;DHT22;2593;52.466;13.436;2022-11-20T06:20:21;0.30;99.90
5150;DHT22;2593;52.466;13.436;2022-11-20T06:22:47;0.30;99.90
5150;DHT22;2593;52.466;13.436;2022-11-20T06:25:13;0.30;99.90
5150;DHT22;2593;52.466;13.436;2022-11-20T06:27:39;0.30;99.90
5150;DHT22;2593;52.466;13.436;2022-11-20T06:30:05;0.30;99.90
5150;DHT22;2593;52.466;13.436;2022-11-20T06:32:32;0.30;99.90
5150;DHT22;2593;52.466;13.436;2022-11-20T06:34:57;0.20;99.90
5150;DHT22;2593;52.466;13.436;2022-11-20T06:37:23;0.20;99.90
5150;DHT22;2593;52.466;13.436;2022-11-20T06:39:49;0.20;99.90
5150;DHT22;2593;52.466;13.436;2022-11-20T06:42:14;0.30;99.90
5150;DHT22;2593;52.466;13.436;2022-11-20T06:44:40;0.30;99.90
5150;DHT22;2593;52.466;13.436;2022-11-20T06:47:06;0.30;99.90
5150;DHT22;2593;52.466;13.436;2022-11-20T06:49:31;0.30;99.90
5150;DHT22;2593;52.466;13.436;2022-11-20T06:52:00;0.30;99.90
5150;DHT22;2593;52.466;13.436;2022-11-20T06:54:26;0.30;99.90
5150;DHT22;2593;52.466;13.436;2022-11-20T06:56:51;0.30;99.90
5150;DHT22;2593;52.466;13.436;2022-11-20T06:59:17;0.30;99.90
5150;DHT22;2593;52.466;13.436;2022-11-20T07:01:42;0.40;99.90
5150;DHT22;2593;52.466;13.436;2022-11-20T07:04:08;0.40;99.90
5150;DHT22;2593;52.466;13.436;2022-11-20T07:06:34;0.40;99.90
5150;DHT22;2593;52.466;13.436;2022-11-20T07:08:59;0.40;99.90
5150;DHT22;2593;52.466;13.436;2022-11-20T07:11:25;0.40;99.90
5150;DHT22;2593;52.466;13.436;2022-11-20T07:13:51;0.50;99.90
5150;DHT22;2593;52.466;13.436;2022-11-20T07:16:17;0.50;99.90
5150;DHT22;2593;52.466;13.436;2022-11-20T07:18:42;0.40;99.90
5150;DHT22;2593;52.466;13.436;2022-11-20T07:21:09;0.40;99.90
5150;DHT22;2593;52.466;13.436;2022-11-20T07:23:36;0.40;99.90
5150;DHT22;2593;52.466;13.436;2022-11-20T07:26:06;0.40;99.90
5150;DHT22;2593;52.466;13.436;2022-11-20T07:28:32;0.40;99.90
5150;DHT22;2593;52.466;13.436;2022-11-20T07:30:58;0.40;99.90
5150;DHT22;2593;52.466;13.436;2022-11-20T07:33:23;0.40;99.90
5150;DHT22;2593;52.466;13.436;2022-11-20T07:35:49;0.40;99.90
5150;DHT22;2593;52.466;13.436;2022-11-20T07:38:14;0.40;99.90
5150;DHT22;2593;52.466;13.436;2022-11-20T07:40:41;0.30;99.90
5150;DHT22;2593;52.466;13.436;2022-11-20T07:43:06;0.20;99.90
5150;DHT22;2593;52.466;13.436;2022-11-20T07:45:32;0.20;99.90
5150;DHT22;2593;52.466;13.436;2022-11-20T07:47:58;0.30;99.90
5150;DHT22;2593;52.466;13.436;2022-11-20T07:50:23;0.30;99.90
5150;DHT22;2593;52.466;13.436;2022-11-20T07:52:49;0.20;99.90
5150;DHT22;2593;52.466;13.436;2022-11-20T07:55:15;0.30;99.90
5150;DHT22;2593;52.466;13.436;2022-11-20T07:57:41;0.30;99.90
5150;DHT22;2593;52.466;13.436;2022-11-20T08:00:09;0.40;99.90
5150;DHT22;2593;52.466;13.436;2022-11-20T08:02:39;0.40;99.90
5150;DHT22;2593;52.466;13.436;2022-11-20T08:05:05;0.40;99.90
5150;DHT22;2593;52.466;13.436;2022-11-20T08:07:42;0.40;99.90
5150;DHT22;2593;52.466;13.436;2022-11-20T08:10:09;0.50;99.90
5150;DHT22;2593;52.466;13.436;2022-11-20T08:12:34;0.60;99.90
5150;DHT22;2593;52.466;13.436;2022-11-20T08:15:19;0.60;99.90
5150;DHT22;2593;52.466;13.436;2022-11-20T08:17:47;0.70;99.90
5150;DHT22;2593;52.466;13.436;2022-11-20T08:20:12;0.60;99.90
5150;DHT22;2593;52.466;13.436;2022-11-20T08:22:38;0.60;99.90
5150;DHT22;2593;52.466;13.436;2022-11-20T08:25:04;0.60;99.90
5150;DHT22;2593;52.466;13.436;2022-11-20T08:27:31;0.70;99.90
5150;DHT22;2593;52.466;13.436;2022-11-20T08:29:57;0.70;99.90
5150;DHT22;2593;52.466;13.436;2022-11-20T08:32:22;0.70;99.90
5150;DHT22;2593;52.466;13.436;2022-11-20T08:34:48;0.70;99.90
5150;DHT22;2593;52.466;13.436;2022-11-20T08:37:14;0.80;99.90
5150;DHT22;2593;52.466;13.436;2022-11-20T08:39:39;0.90;99.90
5150;DHT22;2593;52.466;13.436;2022-11-20T08:42:08;1.00;99.90
5150;DHT22;2593;52.466;13.436;2022-11-20T08:44:34;1.00;99.90
5150;DHT22;2593;52.466;13.436;2022-11-20T08:47:00;1.00;99.90
5150;DHT22;2593;52.466;13.436;2022-11-20T08:49:26;1.00;99.90
5150;DHT22;2593;52.466;13.436;2022-11-20T08:51:51;1.00;99.90
5150;DHT22;2593;52.466;13.436;2022-11-20T08:54:20;1.00;99.90
5150;DHT22;2593;52.466;13.436;2022-11-20T08:56:47;0.90;99.90
5150;DHT22;2593;52.466;13.436;2022-11-20T08:59:13;1.00;99.90
5150;DHT22;2593;52.466;13.436;2022-11-20T09:01:39;0.90;99.90
5150;DHT22;2593;52.466;13.436;2022-11-20T09:04:04;0.90;99.90
5150;DHT22;2593;52.466;13.436;2022-11-20T09:06:30;1.00;99.90
5150;DHT22;2593;52.466;13.436;2022-11-20T09:08:56;1.00;99.90
5150;DHT22;2593;52.466;13.436;2022-11-20T09:11:22;1.00;99.90
5150;DHT22;2593;52.466;13.436;2022-11-20T09:13:48;1.10;99.90
5150;DHT22;2593;52.466;13.436;2022-11-20T09:16:14;1.20;99.90
5150;DHT22;2593;52.466;13.436;2022-11-20T09:18:40;1.10;99.90
5150;DHT22;2593;52.466;13.436;2022-11-20T09:21:09;1.20;99.90
5150;DHT22;2593;52.466;13.436;2022-11-20T09:23:36;1.20;99.90
5150;DHT22;2593;52.466;13.436;2022-11-20T09:26:07;1.20;99.90
5150;DHT22;2593;52.466;13.436;2022-11-20T09:28:34;1.20;99.90
5150;DHT22;2593;52.466;13.436;2022-11-20T09:31:00;1.10;99.90
5150;DHT22;2593;52.466;13.436;2022-11-20T09:33:26;1.10;99.90
5150;DHT22;2593;52.466;13.436;2022-11-20T09:35:51;1.10;99.90
5150;DHT22;2593;52.466;13.436;2022-11-20T09:38:17;1.10;99.90
5150;DHT22;2593;52.466;13.436;2022-11-20T09:41:04;1.00;99.90
5150;DHT22;2593;52.466;13.436;2022-11-20T09:46:40;1.20;99.90
5150;DHT22;2593;52.466;13.436;2022-11-20T09:52:00;1.10;99.90
5150;DHT22;2593;52.466;13.436;2022-11-20T09:54:35;1.10;99.90
5150;DHT22;2593;52.466;13.436;2022-11-20T09:57:28;1.00;99.90
5150;DHT22;2593;52.466;13.436;2022-11-20T10:00:02;0.90;99.90
5150;DHT22;2593;52.466;13.436;2022-11-20T10:05:20;1.00;99.90
5150;DHT22;2593;52.466;13.436;2022-11-20T10:08:28;1.10;99.90
5150;DHT22;2593;52.466;13.436;2022-11-20T10:10:54;1.00;99.90
5150;DHT22;2593;52.466;13.436;2022-11-20T10:13:59;1.20;99.90
5150;DHT22;2593;52.466;13.436;2022-11-20T10:17:25;1.20;99.90
5150;DHT22;2593;52.466;13.436;2022-11-20T10:22:28;1.30;99.90
5150;DHT22;2593;52.466;13.436;2022-11-20T10:25:15;1.30;99.90
5150;DHT22;2593;52.466;13.436;2022-11-20T10:30:12;1.30;99.90
5150;DHT22;2593;52.466;13.436;2022-11-20T10:32:44;1.20;99.90
5150;DHT22;2593;52.466;13.436;2022-11-20T10:37:44;1.20;99.90
5150;DHT22;2593;52.466;13.436;2022-11-20T10:40:28;1.10;99.90
5150;DHT22;2593;52.466;13.436;2022-11-20T10:43:18;1.00;99.90
5150;DHT22;2593;52.466;13.436;2022-11-20T10:46:06;1.00;99.90
5150;DHT22;2593;52.466;13.436;2022-11-20T10:48:34;1.10;99.90
5150;DHT22;2593;52.466;13.436;2022-11-20T10:53:56;1.20;99.90
5150;DHT22;2593;52.466;13.436;2022-11-20T11:01:51;1.60;99.90
5150;DHT22;2593;52.466;13.436;2022-11-20T11:04:42;1.60;99.90
5150;DHT22;2593;52.466;13.436;2022-11-20T11:07:17;1.70;99.90
5150;DHT22;2593;52.466;13.436;2022-11-20T11:09:53;1.60;99.90
5150;DHT22;2593;52.466;13.436;2022-11-20T11:12:21;1.80;99.90
5150;DHT22;2593;52.466;13.436;2022-11-20T11:14:52;1.90;99.90
5150;DHT22;2593;52.466;13.436;2022-11-20T11:17:30;1.80;99.90
5150;DHT22;2593;52.466;13.436;2022-11-20T11:20:18;1.60;99.90
5150;DHT22;2593;52.466;13.436;2022-11-20T11:22:55;1.70;1.00
5150;DHT22;2593;52.466;13.436;2022-11-20T11:25:41;1.80;99.90
5150;DHT22;2593;52.466;13.436;2022-11-20T11:28:27;2.00;99.90
5150;DHT22;2593;52.466;13.436;2022-11-20T11:30:54;2.10;99.90
5150;DHT22;2593;52.466;13.436;2022-11-20T11:33:25;2.20;1.00
5150;DHT22;2593;52.466;13.436;2022-11-20T11:35:54;2.30;1.00
5150;DHT22;2593;52.466;13.436;2022-11-20T11:38:32;2.50;1.00
5150;DHT22;2593;52.466;13.436;2022-11-20T11:41:01;2.30;1.00
5150;DHT22;2593;52.466;13.436;2022-11-20T11:43:31;2.40;1.00
5150;DHT22;2593;52.466;13.436;2022-11-20T11:54:53;2.40;99.90
5150;DHT22;2593;52.466;13.436;2022-11-20T12:00:16;2.10;1.00
5150;DHT22;2593;52.466;13.436;2022-11-20T12:05:24;2.10;1.00
5150;DHT22;2593;52.466;13.436;2022-11-20T12:10:40;2.10;1.00
5150;DHT22;2593;52.466;13.436;2022-11-20T12:15:58;2.00;1.00
5150;DHT22;2593;52.466;13.436;2022-11-20T12:18:24;2.10;1.00
5150;DHT22;2593;52.466;13.436;2022-11-20T12:26:37;2.10;1.00
5150;DHT22;2593;52.466;13.436;2022-11-20T12:29:15;2.10;1.00
5150;DHT22;2593;52.466;13.436;2022-11-20T12:37:59;2.30;1.00
5150;DHT22;2593;52.466;13.436;2022-11-20T12:40:53;2.20;1.00
5150;DHT22;2593;52.466;13.436;2022-11-20T12:43:25;2.20;1.00
5150;DHT22;2593;52.466;13.436;2022-11-20T12:57:18;2.30;1.00
5150;DHT22;2593;52.466;13.436;2022-11-20T13:03:17;2.10;1.00
5150;DHT22;2593;52.466;13.436;2022-11-20T13:06:16;2.00;1.00
5150;DHT22;2593;52.466;13.436;2022-11-20T13:08:54;2.00;1.00
5150;DHT22;2593;52.466;13.436;2022-11-20T13:14:24;1.90;99.90
5150;DHT22;2593;52.466;13.436;2022-11-20T13:19:54;1.80;99.90
5150;DHT22;2593;52.466;13.436;2022-11-20T13:22:28;1.70;1.00
5150;DHT22;2593;52.466;13.436;2022-11-20T13:24:54;1.70;1.00
5150;DHT22;2593;52.466;13.436;2022-11-20T13:27:23;1.60;99.90
5150;DHT22;2593;52.466;13.436;2022-11-20T13:30:19;1.50;99.90
5150;DHT22;2593;52.466;13.436;2022-11-20T13:33:09;1.60;1.00
5150;DHT22;2593;52.466;13.436;2022-11-20T13:35:56;1.60;1.00
5150;DHT22;2593;52.466;13.436;2022-11-20T13:38:22;1.60;1.00
5150;DHT22;2593;52.466;13.436;2022-11-20T13:40:58;1.60;1.00
5150;DHT22;2593;52.466;13.436;2022-11-20T13:43:40;1.50;1.00
5150;DHT22;2593;52.466;13.436;2022-11-20T13:46:08;1.50;99.90
5150;DHT22;2593;52.466;13.436;2022-11-20T13:48:41;1.50;1.00
5150;DHT22;2593;52.466;13.436;2022-11-20T14:02:18;1.50;99.90
5150;DHT22;2593;52.466;13.436;2022-11-20T14:04:48;1.50;99.90
5150;DHT22;2593;52.466;13.436;2022-11-20T14:07:15;1.50;1.00
5150;DHT22;2593;52.466;13.436;2022-11-20T14:09:54;1.40;99.90
5150;DHT22;2593;52.466;13.436;2022-11-20T14:12:31;1.40;99.90
5150;DHT22;2593;52.466;13.436;2022-11-20T14:14:57;1.40;99.90
5150;DHT22;2593;52.466;13.436;2022-11-20T14:17:32;1.40;99.90
5150;DHT22;2593;52.466;13.436;2022-11-20T14:20:02;1.40;1.00
5150;DHT22;2593;52.466;13.436;2022-11-20T14:22:28;1.40;1.00
5150;DHT22;2593;52.466;13.436;2022-11-20T14:27:44;1.40;45.60
5150;DHT22;2593;52.466;13.436;2022-11-20T14:30:15;1.40;1.00
5150;DHT22;2593;52.466;13.436;2022-11-20T14:32:43;1.40;1.00
5150;DHT22;2593;52.466;13.436;2022-11-20T14:35:15;1.40;1.00
5150;DHT22;2593;52.466;13.436;2022-11-20T14:37:44;1.40;1.00
5150;DHT22;2593;52.466;13.436;2022-11-20T14:40:32;1.40;1.00
5150;DHT22;2593;52.466;13.436;2022-11-20T14:43:01;1.50;99.90
5150;DHT22;2593;52.466;13.436;2022-11-20T14:45:27;1.50;97.00
5150;DHT22;2593;52.466;13.436;2022-11-20T14:47:55;1.50;99.90
5150;DHT22;2593;52.466;13.436;2022-11-20T14:50:29;1.60;1.00
5150;DHT22;2593;52.466;13.436;2022-11-20T14:53:01;1.60;1.00
5150;DHT22;2593;52.466;13.436;2022-11-20T14:57:58;1.70;99.90
5150;DHT22;2593;52.466;13.436;2022-11-20T15:00:24;1.70;53.20
5150;DHT22;2593;52.466;13.436;2022-11-20T15:02:51;1.80;1.00
5150;DHT22;2593;52.466;13.436;2022-11-20T15:05:19;1.70;99.90
5150;DHT22;2593;52.466;13.436;2022-11-20T15:08:04;1.70;1.00
5150;DHT22;2593;52.466;13.436;2022-11-20T15:10:30;1.70;99.90
5150;DHT22;2593;52.466;13.436;2022-11-20T15:13:02;1.70;99.90
5150;DHT22;2593;52.466;13.436;2022-11-20T15:15:49;1.70;99.90
5150;DHT22;2593;52.466;13.436;2022-11-20T15:18:22;1.70;99.90
5150;DHT22;2593;52.466;13.436;2022-11-20T15:20:49;1.60;99.90
5150;DHT22;2593;52.466;13.436;2022-11-20T15:23:16;1.50;99.90
5150;DHT22;2593;52.466;13.436;2022-11-20T15:25:46;1.60;99.90
5150;DHT22;2593;52.466;13.436;2022-11-20T15:28:34;1.50;37.50
5150;DHT22;2593;52.466;13.436;2022-11-20T15:31:01;1.40;99.90
5150;DHT22;2593;52.466;13.436;2022-11-20T15:33:28;1.40;99.90
5150;DHT22;2593;52.466;13.436;2022-11-20T15:35:54;1.40;99.90
5150;DHT22;2593;52.466;13.436;2022-11-20T15:38:19;1.40;99.90
5150;DHT22;2593;52.466;13.436;2022-11-20T15:40:45;1.40;99.90
5150;DHT22;2593;52.466;13.436;2022-11-20T15:43:10;1.50;99.90
5150;DHT22;2593;52.466;13.436;2022-11-20T15:45:45;1.40;99.90
5150;DHT22;2593;52.466;13.436;2022-11-20T15:51:24;1.50;99.90
5150;DHT22;2593;52.466;13.436;2022-11-20T15:53:47;1.40;1.00
5150;DHT22;2593;52.466;13.436;2022-11-20T15:56:13;1.40;1.00
5150;DHT22;2593;52.466;13.436;2022-11-20T15:58:39;1.40;1.00
5150;DHT22;2593;52.466;13.436;2022-11-20T16:01:05;1.40;1.00
5150;DHT22;2593;52.466;13.436;2022-11-20T16:03:31;1.40;1.00
5150;DHT22;2593;52.466;13.436;2022-11-20T16:05:56;1.40;1.00
5150;DHT22;2593;52.466;13.436;2022-11-20T16:08:22;1.50;1.00
5150;DHT22;2593;52.466;13.436;2022-11-20T16:10:48;1.50;1.00
5150;DHT22;2593;52.466;13.436;2022-11-20T16:13:16;1.50;1.00
5150;DHT22;2593;52.466;13.436;2022-11-20T16:16:06;1.50;1.00
5150;DHT22;2593;52.466;13.436;2022-11-20T16:18:32;1.50;1.00
5150;DHT22;2593;52.466;13.436;2022-11-20T16:20:57;1.40;99.90
5150;DHT22;2593;52.466;13.436;2022-11-20T16:23:23;1.40;99.90
5150;DHT22;2593;52.466;13.436;2022-11-20T16:25:49;1.30;1.00
5150;DHT22;2593;52.466;13.436;2022-11-20T16:28:15;1.20;1.00
5150;DHT22;2593;52.466;13.436;2022-11-20T16:30:41;1.10;1.00
5150;DHT22;2593;52.466;13.436;2022-11-20T16:33:14;1.00;1.00
5150;DHT22;2593;52.466;13.436;2022-11-20T16:35:40;1.00;1.00
5150;DHT22;2593;52.466;13.436;2022-11-20T16:38:06;0.90;1.00
5150;DHT22;2593;52.466;13.436;2022-11-20T16:40:31;0.80;1.00
5150;DHT22;2593;52.466;13.436;2022-11-20T16:42:57;0.80;99.90
5150;DHT22;2593;52.466;13.436;2022-11-20T16:45:23;0.80;99.90
5150;DHT22;2593;52.466;13.436;2022-11-20T16:47:48;0.70;1.00
5150;DHT22;2593;52.466;13.436;2022-11-20T16:50:14;0.60;1.00
5150;DHT22;2593;52.466;13.436;2022-11-20T16:52:40;0.60;1.00
5150;DHT22;2593;52.466;13.436;2022-11-20T16:55:06;0.60;99.90
5150;DHT22;2593;52.466;13.436;2022-11-20T16:57:31;0.60;99.90
5150;DHT22;2593;52.466;13.436;2022-11-20T16:59:58;0.60;99.90
5150;DHT22;2593;52.466;13.436;2022-11-20T17:02:24;0.50;1.00
5150;DHT22;2593;52.466;13.436;2022-11-20T17:04:50;0.50;1.00
5150;DHT22;2593;52.466;13.436;2022-11-20T17:07:16;0.60;1.00
5150;DHT22;2593;52.466;13.436;2022-11-20T17:09:42;0.60;51.60
5150;DHT22;2593;52.466;13.436;2022-11-20T17:12:08;0.50;99.90
5150;DHT22;2593;52.466;13.436;2022-11-20T17:14:34;0.50;1.00
5150;DHT22;2593;52.466;13.436;2022-11-20T17:17:00;0.50;1.00
5150;DHT22;2593;52.466;13.436;2022-11-20T17:19:25;0.50;99.90
5150;DHT22;2593;52.466;13.436;2022-11-20T17:21:51;0.50;1.00
5150;DHT22;2593;52.466;13.436;2022-11-20T17:24:17;0.40;1.00
5150;DHT22;2593;52.466;13.436;2022-11-20T17:26:43;0.40;99.90
5150;DHT22;2593;52.466;13.436;2022-11-20T17:29:10;0.30;1.00
5150;DHT22;2593;52.466;13.436;2022-11-20T17:31:36;0.30;99.90
5150;DHT22;2593;52.466;13.436;2022-11-20T17:34:06;0.30;99.90
5150;DHT22;2593;52.466;13.436;2022-11-20T17:36:33;0.40;99.90
5150;DHT22;2593;52.466;13.436;2022-11-20T17:38:59;0.40;99.90
5150;DHT22;2593;52.466;13.436;2022-11-20T17:41:27;0.40;99.90
5150;DHT22;2593;52.466;13.436;2022-11-20T17:43:55;0.50;99.90
5150;DHT22;2593;52.466;13.436;2022-11-20T17:46:23;0.50;99.90
5150;DHT22;2593;52.466;13.436;2022-11-20T17:48:49;0.50;38.40
5150;DHT22;2593;52.466;13.436;2022-11-20T17:51:18;0.60;99.90
5150;DHT22;2593;52.466;13.436;2022-11-20T17:53:47;0.60;99.90
5150;DHT22;2593;52.466;13.436;2022-11-20T17:56:13;0.70;99.90